sensor_id;sensor_type;location;lat;lon;timestamp;P1;durP1;ratioP1;P2;durP2;ratioP2
29958;SDS011;16815;51.100;6.516;2023-03-05T00:01:17;7.80;;;2.87;;
29958;SDS011;16815;51.100;6.516;2023-03-05T00:03:44;12.13;;;3.97;;
29958;SDS011;16815;51.100;6.516;2023-03-05T00:06:10;10.30;;;3.20;;
29958;SDS011;16815;51.100;6.516;2023-03-05T00:08:36;8.70;;;2.80;;
29958;SDS011;16815;51.100;6.516;2023-03-05T00:11:03;7.17;;;2.40;;
29958;SDS011;16815;51.100;6.516;2023-03-05T00:13:30;10.00;;;3.00;;
29958;SDS011;16815;51.100;6.516;2023-03-05T00:15:56;7.23;;;2.97;;
29958;SDS011;16815;51.100;6.516;2023-03-05T00:18:22;10.97;;;3.10;;
29958;SDS011;16815;51.100;6.516;2023-03-05T00:20:48;8.83;;;2.57;;
29958;SDS011;16815;51.100;6.516;2023-03-05T00:23:14;8.13;;;2.63;;
29958;SDS011;16815;51.100;6.516;2023-03-05T00:25:41;5.10;;;2.20;;
29958;SDS011;16815;51.100;6.516;2023-03-05T00:28:07;4.10;;;2.27;;
29958;SDS011;16815;51.100;6.516;2023-03-05T00:30:33;5.60;;;2.40;;
29958;SDS011;16815;51.100;6.516;2023-03-05T00:32:59;5.87;;;3.00;;
29958;SDS011;16815;51.100;6.516;2023-03-05T00:35:26;4.80;;;2.30;;
29958;SDS011;16815;51.100;6.516;2023-03-05T00:37:52;6.27;;;2.37;;
29958;SDS011;16815;51.100;6.516;2023-03-05T00:40:18;6.33;;;2.20;;
29958;SDS011;16815;51.100;6.516;2023-03-05T00:42:44;3.93;;;2.00;;
29958;SDS011;16815;51.100;6.516;2023-03-05T00:45:10;5.17;;;2.63;;
29958;SDS011;16815;51.100;6.516;2023-03-05T00:47:36;5.77;;;2.10;;
29958;SDS011;16815;51.100;6.516;2023-03-05T00:50:03;6.10;;;2.53;;
29958;SDS011;16815;51.100;6.516;2023-03-05T00:52:29;4.40;;;2.17;;
29958;SDS011;16815;51.100;6.516;2023-03-05T00:54:55;4.13;;;2.20;;
29958;SDS011;16815;51.100;6.516;2023-03-05T00:57:21;5.73;;;2.30;;
29958;SDS011;16815;51.100;6.516;2023-03-05T00:59:47;8.00;;;2.57;;
29958;SDS011;16815;51.100;6.516;2023-03-05T01:02:13;5.87;;;2.67;;
29958;SDS011;16815;51.100;6.516;2023-03-05T01:04:39;5.40;;;2.57;;
29958;SDS011;16815;51.100;6.516;2023-03-05T01:07:05;9.93;;;2.70;;
29958;SDS011;16815;51.100;6.516;2023-03-05T01:09:31;7.20;;;2.40;;
29958;SDS011;16815;51.100;6.516;2023-03-05T01:11:57;5.07;;;2.60;;
29958;SDS011;16815;51.100;6.516;2023-03-05T01:14:24;7.33;;;3.17;;
29958;SDS011;16815;51.100;6.516;2023-03-05T01:16:52;7.10;;;2.70;;
29958;SDS011;16815;51.100;6.516;2023-03-05T01:19:18;5.87;;;2.83;;
29958;SDS011;16815;51.100;6.516;2023-03-05T01:21:44;9.07;;;2.90;;
29958;SDS011;16815;51.100;6.516;2023-03-05T01:24:10;5.90;;;3.07;;
29958;SDS011;16815;51.100;6.516;2023-03-05T01:26:36;10.80;;;3.43;;
29958;SDS011;16815;51.100;6.516;2023-03-05T01:29:02;7.10;;;2.70;;
29958;SDS011;16815;51.100;6.516;2023-03-05T01:31:28;11.43;;;3.50;;
29958;SDS011;16815;51.100;6.516;2023-03-05T01:33:54;7.97;;;3.13;;
29958;SDS011;16815;51.100;6.516;2023-03-05T01:36:21;7.33;;;2.50;;
29958;SDS011;16815;51.100;6.516;2023-03-05T01:38:49;8.47;;;2.63;;
29958;SDS011;16815;51.100;6.516;2023-03-05T01:41:15;6.37;;;2.70;;
29958;SDS011;16815;51.100;6.516;2023-03-05T01:43:41;7.53;;;2.67;;
29958;SDS011;16815;51.100;6.516;2023-03-05T01:46:21;5.80;;;2.50;;
29958;SDS011;16815;51.100;6.516;2023-03-05T01:48:49;9.50;;;2.60;;
29958;SDS011;16815;51.100;6.516;2023-03-05T01:51:16;7.27;;;2.63;;
29958;SDS011;16815;51.100;6.516;2023-03-05T01:53:43;7.27;;;2.73;;
29958;SDS011;16815;51.100;6.516;2023-03-05T01:56:09;6.60;;;2.60;;
29958;SDS011;16815;51.100;6.516;2023-03-05T01:58:35;9.53;;;2.70;;
29958;SDS011;16815;51.100;6.516;2023-03-05T02:01:03;12.63;;;3.50;;
29958;SDS011;16815;51.100;6.516;2023-03-05T02:03:29;8.30;;;2.60;;
29958;SDS011;16815;51.100;6.516;2023-03-05T02:05:56;8.60;;;3.30;;
29958;SDS011;16815;51.100;6.516;2023-03-05T02:08:23;5.70;;;2.43;;
29958;SDS011;16815;51.100;6.516;2023-03-05T02:10:52;7.73;;;2.73;;
29958;SDS011;16815;51.100;6.516;2023-03-05T02:13:25;7.20;;;2.50;;
29958;SDS011;16815;51.100;6.516;2023-03-05T02:15:52;10.80;;;2.93;;
29958;SDS011;16815;51.100;6.516;2023-03-05T02:18:19;8.67;;;2.80;;
29958;SDS011;16815;51.100;6.516;2023-03-05T02:20:49;9.80;;;2.80;;
29958;SDS011;16815;51.100;6.516;2023-03-05T02:23:16;11.73;;;3.17;;
29958;SDS011;16815;51.100;6.516;2023-03-05T02:25:42;5.63;;;2.47;;
29958;SDS011;16815;51.100;6.516;2023-03-05T02:30:40;7.43;;;2.80;;
29958;SDS011;16815;51.100;6.516;2023-03-05T02:33:06;6.70;;;2.77;;
29958;SDS011;16815;51.100;6.516;2023-03-05T02:35:32;6.20;;;2.63;;
29958;SDS011;16815;51.100;6.516;2023-03-05T02:37:58;9.33;;;3.07;;
29958;SDS011;16815;51.100;6.516;2023-03-05T02:40:24;8.47;;;2.63;;
29958;SDS011;16815;51.100;6.516;2023-03-05T02:42:50;11.00;;;2.90;;
29958;SDS011;16815;51.100;6.516;2023-03-05T02:45:17;4.77;;;2.10;;
29958;SDS011;16815;51.100;6.516;2023-03-05T02:47:43;8.17;;;2.40;;
29958;SDS011;16815;51.100;6.516;2023-03-05T02:50:09;9.10;;;2.80;;
29958;SDS011;16815;51.100;6.516;2023-03-05T02:52:35;9.33;;;2.40;;
29958;SDS011;16815;51.100;6.516;2023-03-05T02:55:01;4.97;;;2.23;;
29958;SDS011;16815;51.100;6.516;2023-03-05T02:57:27;7.70;;;2.27;;
29958;SDS011;16815;51.100;6.516;2023-03-05T02:59:53;6.83;;;2.50;;
29958;SDS011;16815;51.100;6.516;2023-03-05T03:02:20;6.90;;;2.87;;
29958;SDS011;16815;51.100;6.516;2023-03-05T03:04:46;4.80;;;2.87;;
29958;SDS011;16815;51.100;6.516;2023-03-05T03:07:12;7.70;;;2.90;;
29958;SDS011;16815;51.100;6.516;2023-03-05T03:09:38;7.10;;;3.00;;
29958;SDS011;16815;51.100;6.516;2023-03-05T03:12:05;10.10;;;3.37;;
29958;SDS011;16815;51.100;6.516;2023-03-05T03:14:35;9.20;;;3.07;;
29958;SDS011;16815;51.100;6.516;2023-03-05T03:17:05;6.20;;;2.40;;
29958;SDS011;16815;51.100;6.516;2023-03-05T03:19:31;8.87;;;2.73;;
29958;SDS011;16815;51.100;6.516;2023-03-05T03:21:57;6.43;;;2.80;;
29958;SDS011;16815;51.100;6.516;2023-03-05T03:24:23;4.03;;;2.13;;
29958;SDS011;16815;51.100;6.516;2023-03-05T03:26:49;11.20;;;3.27;;
29958;SDS011;16815;51.100;6.516;2023-03-05T03:29:15;6.40;;;2.10;;
29958;SDS011;16815;51.100;6.516;2023-03-05T03:31:42;5.80;;;2.50;;
29958;SDS011;16815;51.100;6.516;2023-03-05T03:34:09;8.70;;;2.90;;
29958;SDS011;16815;51.100;6.516;2023-03-05T03:36:35;9.17;;;2.80;;
29958;SDS011;16815;51.100;6.516;2023-03-05T03:39:01;8.73;;;2.53;;
29958;SDS011;16815;51.100;6.516;2023-03-05T03:41:29;7.63;;;2.17;;
29958;SDS011;16815;51.100;6.516;2023-03-05T03:43:55;7.13;;;2.57;;
29958;SDS011;16815;51.100;6.516;2023-03-05T03:46:21;7.73;;;2.80;;
29958;SDS011;16815;51.100;6.516;2023-03-05T03:48:50;9.40;;;2.87;;
29958;SDS011;16815;51.100;6.516;2023-03-05T03:51:16;7.50;;;2.80;;
29958;SDS011;16815;51.100;6.516;2023-03-05T03:53:42;7.73;;;2.73;;
29958;SDS011;16815;51.100;6.516;2023-03-05T03:56:08;8.00;;;2.97;;
29958;SDS011;16815;51.100;6.516;2023-03-05T03:58:34;13.87;;;3.33;;
29958;SDS011;16815;51.100;6.516;2023-03-05T04:00:59;8.23;;;3.10;;
29958;SDS011;16815;51.100;6.516;2023-03-05T04:03:25;6.47;;;2.87;;
29958;SDS011;16815;51.100;6.516;2023-03-05T04:05:51;11.07;;;2.80;;
29958;SDS011;16815;51.100;6.516;2023-03-05T04:08:17;11.37;;;4.10;;
29958;SDS011;16815;51.100;6.516;2023-03-05T04:10:43;8.40;;;2.67;;
29958;SDS011;16815;51.100;6.516;2023-03-05T04:13:09;10.97;;;2.60;;
29958;SDS011;16815;51.100;6.516;2023-03-05T04:15:35;4.70;;;2.40;;
29958;SDS011;16815;51.100;6.516;2023-03-05T04:18:01;10.10;;;2.93;;
29958;SDS011;16815;51.100;6.516;2023-03-05T04:20:27;6.97;;;2.70;;
29958;SDS011;16815;51.100;6.516;2023-03-05T04:22:53;6.20;;;2.53;;
29958;SDS011;16815;51.100;6.516;2023-03-05T04:25:19;7.33;;;2.50;;
29958;SDS011;16815;51.100;6.516;2023-03-05T04:27:45;10.40;;;2.97;;
29958;SDS011;16815;51.100;6.516;2023-03-05T04:30:11;7.57;;;3.10;;
29958;SDS011;16815;51.100;6.516;2023-03-05T04:32:40;4.80;;;3.27;;
29958;SDS011;16815;51.100;6.516;2023-03-05T04:35:09;13.33;;;3.20;;
29958;SDS011;16815;51.100;6.516;2023-03-05T04:37:35;10.20;;;3.07;;
29958;SDS011;16815;51.100;6.516;2023-03-05T04:40:01;8.90;;;3.20;;
29958;SDS011;16815;51.100;6.516;2023-03-05T04:42:28;7.03;;;3.10;;
29958;SDS011;16815;51.100;6.516;2023-03-05T04:44:54;11.60;;;2.80;;
29958;SDS011;16815;51.100;6.516;2023-03-05T04:47:20;9.23;;;2.70;;
29958;SDS011;16815;51.100;6.516;2023-03-05T04:49:46;5.23;;;2.80;;
29958;SDS011;16815;51.100;6.516;2023-03-05T04:52:13;9.57;;;2.70;;
29958;SDS011;16815;51.100;6.516;2023-03-05T04:54:39;6.60;;;2.93;;
29958;SDS011;16815;51.100;6.516;2023-03-05T04:57:05;5.67;;;2.90;;
29958;SDS011;16815;51.100;6.516;2023-03-05T04:59:31;8.97;;;3.40;;
29958;SDS011;16815;51.100;6.516;2023-03-05T05:01:57;6.30;;;3.17;;
29958;SDS011;16815;51.100;6.516;2023-03-05T05:04:23;7.03;;;2.93;;
29958;SDS011;16815;51.100;6.516;2023-03-05T05:06:49;10.53;;;2.90;;
29958;SDS011;16815;51.100;6.516;2023-03-05T05:09:15;11.23;;;3.40;;
29958;SDS011;16815;51.100;6.516;2023-03-05T05:11:41;5.23;;;2.87;;
29958;SDS011;16815;51.100;6.516;2023-03-05T05:14:07;8.07;;;2.90;;
29958;SDS011;16815;51.100;6.516;2023-03-05T05:16:33;6.03;;;3.10;;
29958;SDS011;16815;51.100;6.516;2023-03-05T05:18:59;8.40;;;3.00;;
29958;SDS011;16815;51.100;6.516;2023-03-05T05:21:25;8.27;;;3.20;;
29958;SDS011;16815;51.100;6.516;2023-03-05T05:23:50;8.53;;;2.80;;
29958;SDS011;16815;51.100;6.516;2023-03-05T05:26:16;8.20;;;2.80;;
29958;SDS011;16815;51.100;6.516;2023-03-05T05:28:42;6.87;;;2.60;;
29958;SDS011;16815;51.100;6.516;2023-03-05T05:31:09;6.40;;;3.17;;
29958;SDS011;16815;51.100;6.516;2023-03-05T05:33:35;8.13;;;3.17;;
29958;SDS011;16815;51.100;6.516;2023-03-05T05:36:02;9.10;;;3.40;;
29958;SDS011;16815;51.100;6.516;2023-03-05T05:38:28;6.97;;;3.50;;
29958;SDS011;16815;51.100;6.516;2023-03-05T05:41:00;7.60;;;2.90;;
29958;SDS011;16815;51.100;6.516;2023-03-05T05:43:26;8.57;;;3.43;;
29958;SDS011;16815;51.100;6.516;2023-03-05T05:45:52;8.10;;;3.40;;
29958;SDS011;16815;51.100;6.516;2023-03-05T05:48:17;9.07;;;3.60;;
29958;SDS011;16815;51.100;6.516;2023-03-05T05:50:43;6.47;;;2.87;;
29958;SDS011;16815;51.100;6.516;2023-03-05T05:53:09;7.20;;;3.30;;
29958;SDS011;16815;51.100;6.516;2023-03-05T05:55:38;8.83;;;3.60;;
29958;SDS011;16815;51.100;6.516;2023-03-05T05:58:05;9.27;;;3.50;;
29958;SDS011;16815;51.100;6.516;2023-03-05T06:00:31;10.97;;;3.33;;
29958;SDS011;16815;51.100;6.516;2023-03-05T06:02:56;7.53;;;3.50;;
29958;SDS011;16815;51.100;6.516;2023-03-05T06:05:22;5.37;;;3.33;;
29958;SDS011;16815;51.100;6.516;2023-03-05T06:07:48;8.67;;;3.70;;
29958;SDS011;16815;51.100;6.516;2023-03-05T06:10:14;7.43;;;3.70;;
29958;SDS011;16815;51.100;6.516;2023-03-05T06:12:40;6.70;;;3.40;;
29958;SDS011;16815;51.100;6.516;2023-03-05T06:15:06;8.63;;;3.57;;
29958;SDS011;16815;51.100;6.516;2023-03-05T06:17:32;7.30;;;3.30;;
29958;SDS011;16815;51.100;6.516;2023-03-05T06:19:58;6.07;;;3.23;;
29958;SDS011;16815;51.100;6.516;2023-03-05T06:22:25;7.07;;;3.20;;
29958;SDS011;16815;51.100;6.516;2023-03-05T06:24:51;5.13;;;3.40;;
29958;SDS011;16815;51.100;6.516;2023-03-05T06:27:16;8.37;;;3.40;;
29958;SDS011;16815;51.100;6.516;2023-03-05T06:29:42;7.97;;;3.70;;
29958;SDS011;16815;51.100;6.516;2023-03-05T06:32:08;10.63;;;3.50;;
29958;SDS011;16815;51.100;6.516;2023-03-05T06:34:34;4.27;;;3.10;;
29958;SDS011;16815;51.100;6.516;2023-03-05T06:37:00;7.00;;;3.40;;
29958;SDS011;16815;51.100;6.516;2023-03-05T06:39:26;5.37;;;3.00;;
29958;SDS011;16815;51.100;6.516;2023-03-05T06:41:54;7.20;;;2.73;;
29958;SDS011;16815;51.100;6.516;2023-03-05T06:44:20;6.73;;;3.00;;
29958;SDS011;16815;51.100;6.516;2023-03-05T06:46:46;7.83;;;3.27;;
29958;SDS011;16815;51.100;6.516;2023-03-05T06:49:12;5.37;;;3.10;;
29958;SDS011;16815;51.100;6.516;2023-03-05T06:51:38;8.60;;;3.27;;
29958;SDS011;16815;51.100;6.516;2023-03-05T06:54:06;4.87;;;2.93;;
29958;SDS011;16815;51.100;6.516;2023-03-05T06:56:33;10.07;;;3.30;;
29958;SDS011;16815;51.100;6.516;2023-03-05T06:59:00;4.80;;;2.70;;
29958;SDS011;16815;51.100;6.516;2023-03-05T07:01:25;7.97;;;2.97;;
29958;SDS011;16815;51.100;6.516;2023-03-05T07:03:52;7.73;;;3.23;;
29958;SDS011;16815;51.100;6.516;2023-03-05T07:06:19;8.10;;;3.33;;
29958;SDS011;16815;51.100;6.516;2023-03-05T07:08:45;5.70;;;3.13;;
29958;SDS011;16815;51.100;6.516;2023-03-05T07:11:13;7.33;;;3.13;;
29958;SDS011;16815;51.100;6.516;2023-03-05T07:13:39;6.27;;;3.70;;
29958;SDS011;16815;51.100;6.516;2023-03-05T07:16:06;10.47;;;4.20;;
29958;SDS011;16815;51.100;6.516;2023-03-05T07:18:32;10.60;;;3.70;;
29958;SDS011;16815;51.100;6.516;2023-03-05T07:21:01;8.60;;;3.63;;
29958;SDS011;16815;51.100;6.516;2023-03-05T07:23:27;6.07;;;3.50;;
29958;SDS011;16815;51.100;6.516;2023-03-05T07:25:53;10.03;;;3.80;;
29958;SDS011;16815;51.100;6.516;2023-03-05T07:28:19;6.23;;;4.00;;
29958;SDS011;16815;51.100;6.516;2023-03-05T07:30:53;8.17;;;4.20;;
29958;SDS011;16815;51.100;6.516;2023-03-05T07:33:19;7.67;;;4.13;;
29958;SDS011;16815;51.100;6.516;2023-03-05T07:35:45;8.17;;;3.83;;
29958;SDS011;16815;51.100;6.516;2023-03-05T07:38:11;8.30;;;4.20;;
29958;SDS011;16815;51.100;6.516;2023-03-05T07:40:36;12.10;;;4.70;;
29958;SDS011;16815;51.100;6.516;2023-03-05T07:43:02;8.43;;;4.20;;
29958;SDS011;16815;51.100;6.516;2023-03-05T07:45:28;10.10;;;4.33;;
29958;SDS011;16815;51.100;6.516;2023-03-05T07:47:54;16.47;;;8.50;;
29958;SDS011;16815;51.100;6.516;2023-03-05T07:50:20;9.57;;;5.20;;
29958;SDS011;16815;51.100;6.516;2023-03-05T07:52:46;10.50;;;6.10;;
29958;SDS011;16815;51.100;6.516;2023-03-05T07:55:12;13.57;;;7.33;;
29958;SDS011;16815;51.100;6.516;2023-03-05T07:57:38;12.93;;;6.17;;
29958;SDS011;16815;51.100;6.516;2023-03-05T08:00:05;18.57;;;7.00;;
29958;SDS011;16815;51.100;6.516;2023-03-05T08:02:31;17.27;;;7.97;;
29958;SDS011;16815;51.100;6.516;2023-03-05T08:04:57;16.33;;;6.53;;
29958;SDS011;16815;51.100;6.516;2023-03-05T08:07:23;11.87;;;4.90;;
29958;SDS011;16815;51.100;6.516;2023-03-05T08:09:49;10.80;;;5.47;;
29958;SDS011;16815;51.100;6.516;2023-03-05T08:12:15;13.63;;;5.80;;
29958;SDS011;16815;51.100;6.516;2023-03-05T08:14:41;11.43;;;5.30;;
29958;SDS011;16815;51.100;6.516;2023-03-05T08:17:07;9.60;;;5.00;;
29958;SDS011;16815;51.100;6.516;2023-03-05T08:19:33;10.13;;;4.93;;
29958;SDS011;16815;51.100;6.516;2023-03-05T08:21:59;11.20;;;4.50;;
29958;SDS011;16815;51.100;6.516;2023-03-05T08:24:24;7.63;;;4.70;;
29958;SDS011;16815;51.100;6.516;2023-03-05T08:26:53;12.00;;;4.70;;
29958;SDS011;16815;51.100;6.516;2023-03-05T08:29:20;13.17;;;5.10;;
29958;SDS011;16815;51.100;6.516;2023-03-05T08:31:46;9.40;;;4.70;;
29958;SDS011;16815;51.100;6.516;2023-03-05T08:37:04;8.33;;;4.47;;
29958;SDS011;16815;51.100;6.516;2023-03-05T08:39:31;10.40;;;4.33;;
29958;SDS011;16815;51.100;6.516;2023-03-05T08:41:57;11.03;;;4.30;;
29958;SDS011;16815;51.100;6.516;2023-03-05T08:44:23;9.20;;;4.43;;
29958;SDS011;16815;51.100;6.516;2023-03-05T08:46:49;6.90;;;4.03;;
29958;SDS011;16815;51.100;6.516;2023-03-05T08:49:15;10.00;;;4.40;;
29958;SDS011;16815;51.100;6.516;2023-03-05T08:51:44;9.00;;;4.40;;
29958;SDS011;16815;51.100;6.516;2023-03-05T08:54:09;9.20;;;4.60;;
29958;SDS011;16815;51.100;6.516;2023-03-05T08:56:38;10.13;;;5.20;;
29958;SDS011;16815;51.100;6.516;2023-03-05T08:59:04;9.40;;;5.80;;
29958;SDS011;16815;51.100;6.516;2023-03-05T09:01:30;12.17;;;5.70;;
29958;SDS011;16815;51.100;6.516;2023-03-05T09:04:00;12.23;;;5.80;;
29958;SDS011;16815;51.100;6.516;2023-03-05T09:06:26;8.03;;;5.27;;
29958;SDS011;16815;51.100;6.516;2023-03-05T09:08:52;10.10;;;5.13;;
29958;SDS011;16815;51.100;6.516;2023-03-05T09:11:18;10.50;;;5.27;;
29958;SDS011;16815;51.100;6.516;2023-03-05T09:13:44;9.63;;;4.53;;
29958;SDS011;16815;51.100;6.516;2023-03-05T09:16:11;6.13;;;4.80;;
29958;SDS011;16815;51.100;6.516;2023-03-05T09:18:37;9.33;;;5.80;;
29958;SDS011;16815;51.100;6.516;2023-03-05T09:21:11;9.27;;;4.97;;
29958;SDS011;16815;51.100;6.516;2023-03-05T09:23:38;7.30;;;4.70;;
29958;SDS011;16815;51.100;6.516;2023-03-05T09:26:05;6.90;;;5.53;;
29958;SDS011;16815;51.100;6.516;2023-03-05T09:28:31;9.70;;;5.77;;
29958;SDS011;16815;51.100;6.516;2023-03-05T09:31:00;10.00;;;6.23;;
29958;SDS011;16815;51.100;6.516;2023-03-05T09:33:26;12.30;;;6.53;;
29958;SDS011;16815;51.100;6.516;2023-03-05T09:35:52;13.23;;;8.87;;
29958;SDS011;16815;51.100;6.516;2023-03-05T09:38:21;13.27;;;7.73;;
29958;SDS011;16815;51.100;6.516;2023-03-05T09:41:06;12.43;;;8.50;;
29958;SDS011;16815;51.100;6.516;2023-03-05T09:43:53;10.83;;;8.40;;
29958;SDS011;16815;51.100;6.516;2023-03-05T09:46:32;11.17;;;7.50;;
29958;SDS011;16815;51.100;6.516;2023-03-05T09:49:17;13.47;;;7.07;;
29958;SDS011;16815;51.100;6.516;2023-03-05T09:51:46;10.40;;;7.13;;
29958;SDS011;16815;51.100;6.516;2023-03-05T09:54:16;8.37;;;6.43;;
29958;SDS011;16815;51.100;6.516;2023-03-05T09:56:45;11.43;;;6.27;;
29958;SDS011;16815;51.100;6.516;2023-03-05T09:59:28;8.73;;;5.97;;
29958;SDS011;16815;51.100;6.516;2023-03-05T10:02:00;10.07;;;5.97;;
29958;SDS011;16815;51.100;6.516;2023-03-05T10:04:32;8.20;;;6.23;;
29958;SDS011;16815;51.100;6.516;2023-03-05T10:07:10;6.97;;;5.70;;
29958;SDS011;16815;51.100;6.516;2023-03-05T10:09:48;7.10;;;5.43;;
29958;SDS011;16815;51.100;6.516;2023-03-05T10:14:57;8.17;;;5.53;;
29958;SDS011;16815;51.100;6.516;2023-03-05T10:27:42;7.03;;;5.70;;
29958;SDS011;16815;51.100;6.516;2023-03-05T10:30:28;5.60;;;5.00;;
29958;SDS011;16815;51.100;6.516;2023-03-05T10:33:02;8.47;;;6.00;;
29958;SDS011;16815;51.100;6.516;2023-03-05T10:40:55;8.50;;;5.90;;
29958;SDS011;16815;51.100;6.516;2023-03-05T10:45:49;6.83;;;6.07;;
29958;SDS011;16815;51.100;6.516;2023-03-05T10:48:25;7.60;;;6.23;;
29958;SDS011;16815;51.100;6.516;2023-03-05T10:50:53;8.20;;;6.07;;
29958;SDS011;16815;51.100;6.516;2023-03-05T10:53:25;7.13;;;6.43;;
29958;SDS011;16815;51.100;6.516;2023-03-05T10:55:52;8.13;;;6.23;;
29958;SDS011;16815;51.100;6.516;2023-03-05T10:58:21;7.27;;;5.67;;
29958;SDS011;16815;51.100;6.516;2023-03-05T11:03:53;6.10;;;5.50;;
29958;SDS011;16815;51.100;6.516;2023-03-05T11:08:51;6.90;;;5.33;;
29958;SDS011;16815;51.100;6.516;2023-03-05T11:11:18;4.53;;;4.10;;
29958;SDS011;16815;51.100;6.516;2023-03-05T11:18:48;5.30;;;4.80;;
29958;SDS011;16815;51.100;6.516;2023-03-05T11:21:19;6.73;;;3.87;;
29958;SDS011;16815;51.100;6.516;2023-03-05T11:24:02;4.93;;;3.33;;
29958;SDS011;16815;51.100;6.516;2023-03-05T11:26:28;4.77;;;3.60;;
29958;SDS011;16815;51.100;6.516;2023-03-05T11:28:56;4.40;;;3.37;;
29958;SDS011;16815;51.100;6.516;2023-03-05T11:31:24;5.63;;;4.00;;
29958;SDS011;16815;51.100;6.516;2023-03-05T11:34:00;3.73;;;3.30;;
29958;SDS011;16815;51.100;6.516;2023-03-05T11:38:57;3.80;;;2.67;;
29958;SDS011;16815;51.100;6.516;2023-03-05T11:41:31;4.73;;;3.13;;
29958;SDS011;16815;51.100;6.516;2023-03-05T11:43:58;3.93;;;2.67;;
29958;SDS011;16815;51.100;6.516;2023-03-05T11:46:27;3.30;;;2.70;;
29958;SDS011;16815;51.100;6.516;2023-03-05T11:48:54;5.00;;;2.70;;
29958;SDS011;16815;51.100;6.516;2023-03-05T11:51:39;3.70;;;2.90;;
29958;SDS011;16815;51.100;6.516;2023-03-05T11:54:09;4.30;;;3.13;;
29958;SDS011;16815;51.100;6.516;2023-03-05T11:56:37;4.53;;;3.73;;
29958;SDS011;16815;51.100;6.516;2023-03-05T11:59:10;5.07;;;2.97;;
29958;SDS011;16815;51.100;6.516;2023-03-05T12:01:39;4.17;;;3.20;;
29958;SDS011;16815;51.100;6.516;2023-03-05T12:04:07;3.37;;;3.07;;
29958;SDS011;16815;51.100;6.516;2023-03-05T12:06:34;6.27;;;4.00;;
29958;SDS011;16815;51.100;6.516;2023-03-05T12:09:05;4.13;;;3.40;;
29958;SDS011;16815;51.100;6.516;2023-03-05T12:11:32;6.07;;;3.77;;
29958;SDS011;16815;51.100;6.516;2023-03-05T12:14:01;6.43;;;3.67;;
29958;SDS011;16815;51.100;6.516;2023-03-05T12:16:33;5.23;;;4.17;;
29958;SDS011;16815;51.100;6.516;2023-03-05T12:19:25;5.23;;;4.30;;
29958;SDS011;16815;51.100;6.516;2023-03-05T12:21:54;5.87;;;4.07;;
29958;SDS011;16815;51.100;6.516;2023-03-05T12:29:30;6.37;;;4.83;;
29958;SDS011;16815;51.100;6.516;2023-03-05T12:32:03;8.50;;;5.17;;
29958;SDS011;16815;51.100;6.516;2023-03-05T12:37:09;4.40;;;4.00;;
29958;SDS011;16815;51.100;6.516;2023-03-05T12:47:43;5.77;;;4.33;;
29958;SDS011;16815;51.100;6.516;2023-03-05T12:52:51;5.03;;;4.53;;
29958;SDS011;16815;51.100;6.516;2023-03-05T12:57:44;7.20;;;4.80;;
29958;SDS011;16815;51.100;6.516;2023-03-05T13:02:46;5.17;;;4.60;;
29958;SDS011;16815;51.100;6.516;2023-03-05T13:05:15;5.30;;;4.20;;
29958;SDS011;16815;51.100;6.516;2023-03-05T13:07:42;4.60;;;3.37;;
29958;SDS011;16815;51.100;6.516;2023-03-05T13:10:20;4.87;;;3.47;;
29958;SDS011;16815;51.100;6.516;2023-03-05T13:12:50;4.57;;;3.60;;
29958;SDS011;16815;51.100;6.516;2023-03-05T13:15:17;4.07;;;3.63;;
29958;SDS011;16815;51.100;6.516;2023-03-05T13:18:04;4.70;;;3.97;;
29958;SDS011;16815;51.100;6.516;2023-03-05T13:20:33;5.10;;;4.13;;
29958;SDS011;16815;51.100;6.516;2023-03-05T13:23:19;4.53;;;3.87;;
29958;SDS011;16815;51.100;6.516;2023-03-05T13:25:55;4.37;;;3.70;;
29958;SDS011;16815;51.100;6.516;2023-03-05T13:28:21;5.10;;;4.23;;
29958;SDS011;16815;51.100;6.516;2023-03-05T13:30:51;4.70;;;3.77;;
29958;SDS011;16815;51.100;6.516;2023-03-05T13:33:19;4.27;;;3.87;;
29958;SDS011;16815;51.100;6.516;2023-03-05T13:35:47;4.30;;;3.90;;
29958;SDS011;16815;51.100;6.516;2023-03-05T13:38:15;7.03;;;4.87;;
29958;SDS011;16815;51.100;6.516;2023-03-05T13:40:45;5.53;;;4.47;;
29958;SDS011;16815;51.100;6.516;2023-03-05T13:43:25;6.40;;;4.13;;
29958;SDS011;16815;51.100;6.516;2023-03-05T13:45:54;6.53;;;4.47;;
29958;SDS011;16815;51.100;6.516;2023-03-05T13:48:21;6.13;;;4.33;;
29958;SDS011;16815;51.100;6.516;2023-03-05T13:50:54;5.57;;;4.17;;
29958;SDS011;16815;51.100;6.516;2023-03-05T13:53:24;5.17;;;4.43;;
29958;SDS011;16815;51.100;6.516;2023-03-05T13:56:03;5.93;;;4.67;;
29958;SDS011;16815;51.100;6.516;2023-03-05T14:03:52;7.33;;;4.67;;
29958;SDS011;16815;51.100;6.516;2023-03-05T14:06:20;5.37;;;3.77;;
29958;SDS011;16815;51.100;6.516;2023-03-05T14:08:48;4.30;;;3.40;;
29958;SDS011;16815;51.100;6.516;2023-03-05T14:11:15;4.90;;;3.77;;
29958;SDS011;16815;51.100;6.516;2023-03-05T14:13:42;4.57;;;3.57;;
29958;SDS011;16815;51.100;6.516;2023-03-05T14:16:10;6.07;;;4.03;;
29958;SDS011;16815;51.100;6.516;2023-03-05T14:18:36;4.13;;;3.73;;
29958;SDS011;16815;51.100;6.516;2023-03-05T14:21:03;4.80;;;4.20;;
29958;SDS011;16815;51.100;6.516;2023-03-05T14:28:50;5.03;;;4.53;;
29958;SDS011;16815;51.100;6.516;2023-03-05T14:31:16;6.40;;;5.30;;
29958;SDS011;16815;51.100;6.516;2023-03-05T14:33:43;6.20;;;5.47;;
29958;SDS011;16815;51.100;6.516;2023-03-05T14:36:09;6.60;;;5.90;;
29958;SDS011;16815;51.100;6.516;2023-03-05T14:38:38;7.30;;;5.50;;
29958;SDS011;16815;51.100;6.516;2023-03-05T14:43:45;7.50;;;6.50;;
29958;SDS011;16815;51.100;6.516;2023-03-05T14:46:11;7.23;;;6.10;;
29958;SDS011;16815;51.100;6.516;2023-03-05T14:48:37;8.80;;;6.40;;
29958;SDS011;16815;51.100;6.516;2023-03-05T14:51:03;9.60;;;6.80;;
29958;SDS011;16815;51.100;6.516;2023-03-05T14:53:47;9.03;;;6.67;;
29958;SDS011;16815;51.100;6.516;2023-03-05T14:56:17;6.80;;;6.10;;
29958;SDS011;16815;51.100;6.516;2023-03-05T14:58:43;7.07;;;6.37;;
29958;SDS011;16815;51.100;6.516;2023-03-05T15:01:10;7.73;;;6.40;;
29958;SDS011;16815;51.100;6.516;2023-03-05T15:03:37;7.10;;;6.40;;
29958;SDS011;16815;51.100;6.516;2023-03-05T15:06:05;6.73;;;6.13;;
29958;SDS011;16815;51.100;6.516;2023-03-05T15:08:31;7.37;;;6.67;;
29958;SDS011;16815;51.100;6.516;2023-03-05T15:10:57;9.33;;;6.80;;
29958;SDS011;16815;51.100;6.516;2023-03-05T15:13:24;8.83;;;6.37;;
29958;SDS011;16815;51.100;6.516;2023-03-05T15:15:50;6.97;;;6.37;;
29958;SDS011;16815;51.100;6.516;2023-03-05T15:18:17;6.43;;;5.73;;
29958;SDS011;16815;51.100;6.516;2023-03-05T15:20:44;6.57;;;5.80;;
29958;SDS011;16815;51.100;6.516;2023-03-05T15:23:11;6.50;;;5.90;;
29958;SDS011;16815;51.100;6.516;2023-03-05T15:25:38;10.23;;;6.53;;
29958;SDS011;16815;51.100;6.516;2023-03-05T15:28:04;8.20;;;7.17;;
29958;SDS011;16815;51.100;6.516;2023-03-05T15:30:31;10.40;;;7.70;;
29958;SDS011;16815;51.100;6.516;2023-03-05T15:32:59;9.07;;;7.30;;
29958;SDS011;16815;51.100;6.516;2023-03-05T15:35:25;7.87;;;6.87;;
29958;SDS011;16815;51.100;6.516;2023-03-05T15:37:51;8.20;;;6.47;;
29958;SDS011;16815;51.100;6.516;2023-03-05T15:40:17;9.37;;;6.40;;
29958;SDS011;16815;51.100;6.516;2023-03-05T15:42:44;9.17;;;6.67;;
29958;SDS011;16815;51.100;6.516;2023-03-05T15:45:10;6.93;;;6.23;;
29958;SDS011;16815;51.100;6.516;2023-03-05T15:47:36;9.83;;;6.73;;
29958;SDS011;16815;51.100;6.516;2023-03-05T15:50:02;8.00;;;7.30;;
29958;SDS011;16815;51.100;6.516;2023-03-05T15:52:28;7.63;;;6.83;;
29958;SDS011;16815;51.100;6.516;2023-03-05T15:54:54;8.17;;;6.50;;
29958;SDS011;16815;51.100;6.516;2023-03-05T15:57:20;8.40;;;7.10;;
29958;SDS011;16815;51.100;6.516;2023-03-05T15:59:46;7.37;;;6.60;;
29958;SDS011;16815;51.100;6.516;2023-03-05T16:02:12;9.30;;;7.30;;
29958;SDS011;16815;51.100;6.516;2023-03-05T16:04:38;10.50;;;7.40;;